createdAt,value
2023-06-07T00:01:09.625Z,46.10
2023-06-07T00:03:38.588Z,46.30
2023-06-07T00:06:10.740Z,46.20
2023-06-07T00:08:38.727Z,46.10
2023-06-07T00:11:08.287Z,46.20
2023-06-07T00:13:40.249Z,46.50
2023-06-07T00:16:07.469Z,46.60
2023-06-07T00:18:34.757Z,46.90
2023-06-07T00:21:02.943Z,46.50
2023-06-07T00:23:32.089Z,46.70
2023-06-07T00:26:00.889Z,46.80
2023-06-07T00:28:29.693Z,46.60
2023-06-07T00:30:59.381Z,46.90
2023-06-07T00:33:26.757Z,46.70
2023-06-07T00:35:53.845Z,46.60
2023-06-07T00:38:20.844Z,47.10
2023-06-07T00:40:47.786Z,47.10
2023-06-07T00:43:14.844Z,47.10
2023-06-07T00:45:41.956Z,46.90
2023-06-07T00:48:11.750Z,47.40
2023-06-07T00:50:39.288Z,47.20
2023-06-07T00:53:07.898Z,47.90
2023-06-07T00:55:35.204Z,47.70
2023-06-07T00:58:02.329Z,47.40
2023-06-07T01:00:30.719Z,47.60
2023-06-07T01:02:58.016Z,47.60
2023-06-07T01:05:26.800Z,47.40
2023-06-07T01:07:55.826Z,47.60
2023-06-07T01:10:23.401Z,47.10
2023-06-07T01:12:55.484Z,47.20
2023-06-07T01:15:23.213Z,47.30
2023-06-07T01:17:52.819Z,47.40
2023-06-07T01:20:22.593Z,47.40
2023-06-07T01:22:55.123Z,47.40
2023-06-07T01:25:23.552Z,47.10
2023-06-07T01:27:53.807Z,47.20
2023-06-07T01:30:23.208Z,47.60
2023-06-07T01:32:51.643Z,47.50
2023-06-07T01:35:21.113Z,47.50
2023-06-07T01:37:49.308Z,47.30
2023-06-07T01:40:17.360Z,47.60
2023-06-07T01:42:47.033Z,47.00
2023-06-07T01:45:15.006Z,47.50
2023-06-07T01:47:42.320Z,47.30
2023-06-07T01:50:10.558Z,47.10
2023-06-07T01:52:37.634Z,47.30
2023-06-07T01:55:07.195Z,47.30
2023-06-07T01:57:42.776Z,47.10
2023-06-07T02:00:17.015Z,47.40
2023-06-07T02:02:49.641Z,47.40
2023-06-07T02:05:21.133Z,47.30
2023-06-07T02:07:50.904Z,47.70
2023-06-07T02:10:21.283Z,47.40
2023-06-07T02:12:52.766Z,47.40
2023-06-07T02:15:21.935Z,48.00
2023-06-07T02:17:58.711Z,47.70
2023-06-07T02:20:26.525Z,47.50
2023-06-07T02:22:55.016Z,47.30
2023-06-07T02:25:22.335Z,47.30
2023-06-07T02:27:50.768Z,47.80
2023-06-07T02:30:18.212Z,47.60
2023-06-07T02:32:49.782Z,47.40
2023-06-07T02:35:18.429Z,47.20
2023-06-07T02:37:46.635Z,47.30
2023-06-07T02:40:14.511Z,47.50
2023-06-07T02:42:45.079Z,47.60
2023-06-07T02:45:14.104Z,47.80
2023-06-07T02:47:41.691Z,47.40
2023-06-07T02:50:11.011Z,47.50
2023-06-07T02:52:38.462Z,47.80
2023-06-07T02:55:06.262Z,47.70
2023-06-07T02:57:33.509Z,47.50
2023-06-07T03:00:01.224Z,47.50
2023-06-07T03:02:29.194Z,47.90
2023-06-07T03:04:58.751Z,47.60
2023-06-07T03:07:28.228Z,47.90
2023-06-07T03:09:55.526Z,47.80
2023-06-07T03:12:22.546Z,47.80
2023-06-07T03:14:49.644Z,47.80
2023-06-07T03:17:18.167Z,47.90
2023-06-07T03:19:45.439Z,47.80
2023-06-07T03:22:12.535Z,48.00
2023-06-07T03:24:41.246Z,47.80
2023-06-07T03:27:09.683Z,48.10
2023-06-07T03:29:37.128Z,47.80
2023-06-07T03:32:06.533Z,47.70
2023-06-07T03:34:33.935Z,47.70
2023-06-07T03:37:01.012Z,47.70
2023-06-07T03:39:28.349Z,47.50
2023-06-07T03:41:56.755Z,47.80
2023-06-07T03:44:23.805Z,48.00
2023-06-07T03:46:50.820Z,48.00
2023-06-07T03:49:18.216Z,47.50
2023-06-07T03:51:45.513Z,47.90
2023-06-07T03:54:12.656Z,47.90
2023-06-07T03:56:40.274Z,48.10
2023-06-07T03:59:08.903Z,48.10
2023-06-07T04:01:35.961Z,48.00
2023-06-07T04:04:05.622Z,48.00
2023-06-07T04:06:34.406Z,48.00
2023-06-07T04:09:04.252Z,47.70
2023-06-07T04:11:31.254Z,47.70
2023-06-07T04:13:58.297Z,48.20
2023-06-07T04:16:26.776Z,48.00
2023-06-07T04:18:53.860Z,48.10
2023-06-07T04:21:20.872Z,48.00
2023-06-07T04:23:47.920Z,47.70
2023-06-07T04:26:19.550Z,48.20
2023-06-07T04:28:46.888Z,48.00
2023-06-07T04:31:14.208Z,48.00
2023-06-07T04:33:43.303Z,48.30
2023-06-07T04:36:11.349Z,48.20
2023-06-07T04:38:54.027Z,48.00
2023-06-07T04:41:34.322Z,47.90
2023-06-07T04:44:05.983Z,48.00
2023-06-07T04:46:33.313Z,47.90
2023-06-07T04:49:01.963Z,48.60
2023-06-07T04:51:31.041Z,48.30
2023-06-07T04:54:02.795Z,48.20
2023-06-07T04:56:30.090Z,48.10
2023-06-07T04:58:57.679Z,48.50
2023-06-07T05:01:25.548Z,48.40
2023-06-07T05:04:01.467Z,48.10
2023-06-07T05:06:33.193Z,48.40
2023-06-07T05:09:00.354Z,48.10
2023-06-07T05:11:28.162Z,48.00
2023-06-07T05:13:55.220Z,48.60
2023-06-07T05:16:22.338Z,49.10
2023-06-07T05:18:52.036Z,48.60
2023-06-07T05:21:19.557Z,48.70
2023-06-07T05:23:48.017Z,49.00
2023-06-07T05:26:15.148Z,48.50
2023-06-07T05:28:42.187Z,48.60
2023-06-07T05:33:42.942Z,49.00
2023-06-07T05:36:11.360Z,49.00
2023-06-07T05:38:38.747Z,49.50
2023-06-07T05:41:07.155Z,49.10
2023-06-07T05:43:34.415Z,49.30
2023-06-07T05:46:01.535Z,49.60
2023-06-07T05:48:28.859Z,49.20
2023-06-07T05:50:56.159Z,49.00
2023-06-07T05:53:24.510Z,49.00
2023-06-07T05:55:52.003Z,49.00
2023-06-07T05:58:20.966Z,49.00
2023-06-07T06:00:48.568Z,49.10
2023-06-07T06:03:19.572Z,48.90
2023-06-07T06:05:46.716Z,48.90
2023-06-07T06:08:14.548Z,48.80
2023-06-07T06:10:45.777Z,49.00
2023-06-07T06:13:13.787Z,48.90
2023-06-07T06:15:47.096Z,49.50
2023-06-07T06:18:14.606Z,48.90
2023-06-07T06:20:41.810Z,48.90
2023-06-07T06:23:09.063Z,49.40
2023-06-07T06:25:37.998Z,49.40
2023-06-07T06:28:08.091Z,49.50
2023-06-07T06:30:35.233Z,49.50
2023-06-07T06:33:04.943Z,49.50
2023-06-07T06:35:33.999Z,50.00
2023-06-07T06:38:01.331Z,50.00
2023-06-07T06:40:28.642Z,49.90
2023-06-07T06:42:55.872Z,50.30
2023-06-07T06:45:23.291Z,50.50
2023-06-07T06:47:50.705Z,50.50
2023-06-07T06:50:31.930Z,50.00
2023-06-07T06:53:00.577Z,50.10
2023-06-07T06:55:27.741Z,50.30
2023-06-07T06:57:54.731Z,50.30
2023-06-07T07:00:22.437Z,50.20
2023-06-07T07:02:49.578Z,51.10
2023-06-07T07:05:16.793Z,50.50
2023-06-07T07:07:45.216Z,50.30
2023-06-07T07:10:13.953Z,50.30
2023-06-07T07:12:42.771Z,51.10
2023-06-07T07:15:11.336Z,51.00
2023-06-07T07:17:46.432Z,50.30
2023-06-07T07:20:15.781Z,50.20
2023-06-07T07:22:45.317Z,49.70
2023-06-07T07:25:18.210Z,49.70
2023-06-07T07:27:46.681Z,50.40
2023-06-07T07:30:14.317Z,50.20
2023-06-07T07:32:41.490Z,50.00
2023-06-07T07:35:08.931Z,50.40
2023-06-07T07:37:36.304Z,50.10
2023-06-07T07:40:06.431Z,50.10
2023-06-07T07:42:35.255Z,50.40
2023-06-07T07:45:02.436Z,50.00
2023-06-07T07:47:29.456Z,50.50
2023-06-07T07:49:56.762Z,50.50
2023-06-07T07:52:23.817Z,50.50
2023-06-07T07:54:50.922Z,50.80
2023-06-07T07:57:18.017Z,50.40
2023-06-07T07:59:47.017Z,50.30
2023-06-07T08:02:14.106Z,50.00
2023-06-07T08:04:41.422Z,50.20
2023-06-07T08:07:08.531Z,50.60
2023-06-07T08:09:36.157Z,51.50
2023-06-07T08:12:03.355Z,50.70
2023-06-07T08:14:30.599Z,50.70
2023-06-07T08:16:59.007Z,50.70
2023-06-07T08:19:27.641Z,50.40
2023-06-07T08:21:54.827Z,51.30
2023-06-07T08:24:21.930Z,50.20
2023-06-07T08:26:50.592Z,50.00
2023-06-07T08:29:18.858Z,49.80
2023-06-07T08:31:48.283Z,49.80
2023-06-07T08:34:16.686Z,49.80
2023-06-07T08:36:43.879Z,50.00
2023-06-07T08:39:10.875Z,50.00
2023-06-07T08:41:37.994Z,49.80
2023-06-07T08:44:05.515Z,49.70
2023-06-07T08:46:33.051Z,49.80
2023-06-07T08:49:01.441Z,49.60
2023-06-07T08:51:32.525Z,49.60
2023-06-07T08:54:03.358Z,49.60
2023-06-07T08:56:34.333Z,49.70
2023-06-07T08:59:03.670Z,49.40
2023-06-07T09:01:32.446Z,49.50
2023-06-07T09:04:00.034Z,49.50
2023-06-07T09:06:28.769Z,49.50
2023-06-07T09:08:57.756Z,49.70
2023-06-07T09:11:24.932Z,49.70
2023-06-07T09:13:55.809Z,49.70
2023-06-07T09:16:22.945Z,49.70
2023-06-07T09:18:56.237Z,49.60
2023-06-07T09:21:25.497Z,49.70
2023-06-07T09:23:53.724Z,49.50
2023-06-07T09:26:23.460Z,49.30
2023-06-07T09:28:52.211Z,49.30
2023-06-07T09:31:30.294Z,49.40
2023-06-07T09:33:58.854Z,49.40
2023-06-07T09:36:29.484Z,49.40
2023-06-07T09:38:57.395Z,49.30
2023-06-07T09:41:33.100Z,49.40
2023-06-07T09:44:00.227Z,49.50
2023-06-07T09:49:10.721Z,49.60
2023-06-07T09:51:44.035Z,49.70
2023-06-07T09:54:11.110Z,49.50
2023-06-07T09:56:41.460Z,49.50
2023-06-07T09:59:10.082Z,49.40
2023-06-07T10:01:39.549Z,49.50
2023-06-07T10:04:10.231Z,49.40
2023-06-07T10:06:40.101Z,49.40
2023-06-07T10:09:08.793Z,49.40
2023-06-07T10:11:37.955Z,49.40
2023-06-07T10:14:10.576Z,49.50
2023-06-07T10:16:42.854Z,49.60
2023-06-07T10:19:18.822Z,49.50
2023-06-07T10:21:50.523Z,49.70
2023-06-07T10:24:23.803Z,50.10
2023-06-07T10:26:56.333Z,50.30
2023-06-07T10:29:32.822Z,50.50
2023-06-07T10:32:08.478Z,50.30
2023-06-07T10:34:37.491Z,50.10
2023-06-07T10:37:08.367Z,50.80
2023-06-07T10:39:37.261Z,50.10
2023-06-07T10:42:06.552Z,50.00
2023-06-07T10:44:38.581Z,49.80
2023-06-07T10:47:25.102Z,50.10
2023-06-07T10:49:53.056Z,50.00
2023-06-07T10:52:20.790Z,49.90
2023-06-07T10:54:48.599Z,49.40
2023-06-07T10:57:31.237Z,49.40
2023-06-07T11:00:29.822Z,49.20
2023-06-07T11:03:36.393Z,49.10
2023-06-07T11:06:06.614Z,48.60
2023-06-07T11:08:34.769Z,48.40
2023-06-07T11:11:02.967Z,48.20
2023-06-07T11:14:10.822Z,48.30
2023-06-07T11:16:40.044Z,48.60
2023-06-07T11:19:11.570Z,48.00
2023-06-07T11:22:07.536Z,47.70
2023-06-07T11:24:36.829Z,47.70
2023-06-07T11:27:09.681Z,47.20
2023-06-07T11:29:37.911Z,47.10
2023-06-07T11:32:08.843Z,46.80
2023-06-07T11:34:37.091Z,46.70
2023-06-07T11:37:09.457Z,46.10
2023-06-07T11:39:36.848Z,46.10
2023-06-07T11:42:05.463Z,45.60
2023-06-07T11:44:35.365Z,45.40
2023-06-07T11:47:08.067Z,45.40
2023-06-07T11:49:38.893Z,45.10
2023-06-07T11:52:08.380Z,44.90
2023-06-07T11:54:36.137Z,45.10
2023-06-07T11:57:03.680Z,44.90
2023-06-07T11:59:31.922Z,44.40
2023-06-07T12:02:00.504Z,43.90
2023-06-07T12:04:31.176Z,42.50
2023-06-07T12:06:58.713Z,42.90
2023-06-07T12:09:25.774Z,42.80
2023-06-07T12:11:54.706Z,42.60
2023-06-07T12:14:32.063Z,41.50
2023-06-07T12:17:00.783Z,41.10
2023-06-07T12:19:29.723Z,41.10
2023-06-07T12:22:05.221Z,40.70
2023-06-07T12:24:37.717Z,40.00
2023-06-07T12:27:06.259Z,40.00
2023-06-07T12:29:33.859Z,40.10
2023-06-07T12:32:03.227Z,39.80
2023-06-07T12:34:33.448Z,39.70
2023-06-07T12:37:02.737Z,39.80
2023-06-07T12:39:30.746Z,39.40
2023-06-07T12:41:58.264Z,39.50
2023-06-07T12:44:25.848Z,39.40
2023-06-07T12:46:53.333Z,39.30
2023-06-07T12:49:21.208Z,39.00
2023-06-07T12:51:49.902Z,38.90
2023-06-07T12:54:17.189Z,40.00
2023-06-07T12:56:44.428Z,39.80
2023-06-07T12:59:11.543Z,38.50
2023-06-07T13:01:39.687Z,38.70
2023-06-07T13:04:07.273Z,39.30
2023-06-07T13:06:34.504Z,38.90
2023-06-07T13:09:07.181Z,39.70
2023-06-07T13:11:34.925Z,38.70
2023-06-07T13:14:02.143Z,38.10
2023-06-07T13:16:30.628Z,38.60
2023-06-07T13:18:57.856Z,38.60
2023-06-07T13:21:25.065Z,38.80
2023-06-07T13:23:53.211Z,39.10
2023-06-07T13:26:22.091Z,39.00
2023-06-07T13:28:49.545Z,38.80
2023-06-07T13:31:16.737Z,38.60
2023-06-07T13:33:44.568Z,39.10
2023-06-07T13:36:13.209Z,39.00
2023-06-07T13:38:41.260Z,38.90
2023-06-07T13:41:09.003Z,38.20
2023-06-07T13:43:53.753Z,38.10
2023-06-07T13:46:24.827Z,38.40
2023-06-07T13:48:51.879Z,38.10
2023-06-07T13:51:19.511Z,38.30
2023-06-07T13:53:46.588Z,38.70
2023-06-07T13:56:13.816Z,38.80
2023-06-07T13:58:42.662Z,38.60
2023-06-07T14:01:09.887Z,38.50
2023-06-07T14:03:37.309Z,38.40
2023-06-07T14:06:04.800Z,38.60
2023-06-07T14:08:32.194Z,38.60
2023-06-07T14:11:01.442Z,38.20
2023-06-07T14:13:28.924Z,39.00
2023-06-07T14:15:59.375Z,38.50
2023-06-07T14:18:26.574Z,38.40
2023-06-07T14:20:53.896Z,38.10
2023-06-07T14:23:21.031Z,38.10
2023-06-07T14:25:48.120Z,38.20
2023-06-07T14:28:16.881Z,38.10
2023-06-07T14:30:47.700Z,38.20
2023-06-07T14:33:16.325Z,38.10
2023-06-07T14:35:43.431Z,38.10
2023-06-07T14:38:10.690Z,38.20
2023-06-07T14:40:37.783Z,38.10
2023-06-07T14:43:05.079Z,37.90
2023-06-07T14:45:32.204Z,38.20
2023-06-07T14:47:59.504Z,37.70
2023-06-07T14:50:27.934Z,37.90
2023-06-07T14:52:55.018Z,37.90
2023-06-07T14:55:22.256Z,37.80
2023-06-07T14:57:51.820Z,37.70
2023-06-07T15:00:19.730Z,37.70
2023-06-07T15:02:46.807Z,37.70
2023-06-07T15:05:13.859Z,37.80
2023-06-07T15:07:42.237Z,38.10
2023-06-07T15:10:09.895Z,37.80
2023-06-07T15:12:37.992Z,37.50
2023-06-07T15:15:05.959Z,37.50
2023-06-07T15:17:33.297Z,37.40
2023-06-07T15:20:00.512Z,37.40
2023-06-07T15:22:27.691Z,37.50
2023-06-07T15:24:56.208Z,37.40
2023-06-07T15:27:23.266Z,37.40
2023-06-07T15:29:50.482Z,37.20
2023-06-07T15:32:17.649Z,37.30
2023-06-07T15:34:45.941Z,37.70
2023-06-07T15:37:13.052Z,37.40
2023-06-07T15:39:40.090Z,37.40
2023-06-07T15:42:09.113Z,37.10
2023-06-07T15:44:36.668Z,36.80
2023-06-07T15:47:04.296Z,36.30
2023-06-07T15:49:31.602Z,36.00
2023-06-07T15:51:59.272Z,36.00
2023-06-07T15:54:26.441Z,36.10
2023-06-07T15:56:53.583Z,36.50
2023-06-07T15:59:22.199Z,36.40
2023-06-07T16:01:49.340Z,37.20
2023-06-07T16:04:16.650Z,36.30
2023-06-07T16:06:43.822Z,36.20
2023-06-07T16:09:11.047Z,36.90
2023-06-07T16:11:40.538Z,36.10
2023-06-07T16:14:08.398Z,36.00
2023-06-07T16:16:37.002Z,36.00
2023-06-07T16:19:05.751Z,36.10
2023-06-07T16:21:35.941Z,36.00
2023-06-07T16:24:03.768Z,35.80
2023-06-07T16:26:31.381Z,35.70
2023-06-07T16:28:58.587Z,35.80
2023-06-07T16:31:26.928Z,35.80
2023-06-07T16:33:55.710Z,35.50
2023-06-07T16:36:22.999Z,35.40
2023-06-07T16:38:50.619Z,35.50
2023-06-07T16:41:22.848Z,35.80
2023-06-07T16:43:50.513Z,35.90
2023-06-07T16:46:17.618Z,35.80
2023-06-07T16:48:44.705Z,35.80
2023-06-07T16:51:13.204Z,35.90
2023-06-07T16:53:40.255Z,35.50
2023-06-07T16:56:07.430Z,35.50
2023-06-07T16:58:34.518Z,35.30
2023-06-07T17:01:01.702Z,35.40
2023-06-07T17:03:28.871Z,35.50
2023-06-07T17:05:56.057Z,35.50
2023-06-07T17:08:24.440Z,35.30
2023-06-07T17:10:51.726Z,35.20
2023-06-07T17:13:19.057Z,35.20
2023-06-07T17:15:46.091Z,35.30
2023-06-07T17:18:13.668Z,35.00
2023-06-07T17:20:42.124Z,35.00
2023-06-07T17:23:09.549Z,35.10
2023-06-07T17:25:38.332Z,35.20
2023-06-07T17:28:05.786Z,35.20
2023-06-07T17:30:38.709Z,35.20
2023-06-07T17:33:06.725Z,35.10
2023-06-07T17:35:33.861Z,34.80
2023-06-07T17:38:00.913Z,34.90
2023-06-07T17:40:27.920Z,34.60
2023-06-07T17:42:58.272Z,34.60
2023-06-07T17:45:27.352Z,34.50
2023-06-07T17:47:55.420Z,34.90
2023-06-07T17:50:41.085Z,34.80
2023-06-07T17:53:13.293Z,34.60
2023-06-07T17:58:14.155Z,34.90
2023-06-07T18:00:41.424Z,34.80
2023-06-07T18:03:09.800Z,35.80
2023-06-07T18:05:39.504Z,35.20
2023-06-07T18:08:07.014Z,35.20
2023-06-07T18:10:34.109Z,35.30
2023-06-07T18:13:04.218Z,35.70
2023-06-07T18:15:34.095Z,35.40
2023-06-07T18:20:33.070Z,35.40
2023-06-07T18:23:00.293Z,35.40
2023-06-07T18:25:27.495Z,35.60
2023-06-07T18:27:54.603Z,35.70
2023-06-07T18:32:57.377Z,35.80
2023-06-07T18:35:24.653Z,36.00
2023-06-07T18:37:51.966Z,36.00
2023-06-07T18:40:18.977Z,36.70
2023-06-07T18:42:46.017Z,36.20
2023-06-07T18:45:13.012Z,36.30
2023-06-07T18:47:41.770Z,36.30
2023-06-07T18:50:11.588Z,36.50
2023-06-07T18:52:38.700Z,36.40
2023-06-07T18:55:07.245Z,36.60
2023-06-07T18:57:34.470Z,36.70
2023-06-07T19:00:01.458Z,36.80
2023-06-07T19:02:28.808Z,37.40
2023-06-07T19:04:56.071Z,36.90
2023-06-07T19:07:24.493Z,36.90
2023-06-07T19:09:51.538Z,36.90
2023-06-07T19:12:18.729Z,37.00
2023-06-07T19:14:45.796Z,37.10
2023-06-07T19:17:12.899Z,37.10
2023-06-07T19:19:40.338Z,37.10
2023-06-07T19:22:08.505Z,37.30
2023-06-07T19:24:43.528Z,37.30
2023-06-07T19:27:11.517Z,38.00
2023-06-07T19:29:41.599Z,37.40
2023-06-07T19:32:09.821Z,37.40
2023-06-07T19:34:37.343Z,37.40
2023-06-07T19:37:05.442Z,37.50
2023-06-07T19:39:32.597Z,37.50
2023-06-07T19:42:04.633Z,37.50
2023-06-07T19:44:32.148Z,37.60
2023-06-07T19:47:02.213Z,37.60
2023-06-07T19:49:29.279Z,37.70
2023-06-07T19:51:56.501Z,37.70
2023-06-07T19:54:23.565Z,37.70
2023-06-07T19:56:50.821Z,37.80
2023-06-07T19:59:19.372Z,37.90
2023-06-07T20:01:47.408Z,37.90
2023-06-07T20:04:14.680Z,37.90
2023-06-07T20:06:41.828Z,37.80
2023-06-07T20:09:09.520Z,37.90
2023-06-07T20:11:37.177Z,38.20
2023-06-07T20:14:04.405Z,38.10
2023-06-07T20:16:33.999Z,38.10
2023-06-07T20:19:01.928Z,38.20
2023-06-07T20:21:29.560Z,38.30
2023-06-07T20:23:57.320Z,38.30
2023-06-07T20:26:24.525Z,38.70
2023-06-07T20:28:51.631Z,38.30
2023-06-07T20:31:18.865Z,38.20
2023-06-07T20:33:47.208Z,38.90
2023-06-07T20:36:14.176Z,38.30
2023-06-07T20:38:41.644Z,38.30
2023-06-07T20:41:08.841Z,38.30
2023-06-07T20:43:36.705Z,38.30
2023-06-07T20:46:03.670Z,38.40
2023-06-07T20:48:30.905Z,38.40
2023-06-07T20:50:59.222Z,38.40
2023-06-07T20:53:26.182Z,38.40
2023-06-07T20:55:53.245Z,38.50
2023-06-07T20:58:26.784Z,38.60
2023-06-07T21:00:53.841Z,38.60
2023-06-07T21:03:23.849Z,38.80
2023-06-07T21:05:52.497Z,38.80
2023-06-07T21:08:23.211Z,38.90
2023-06-07T21:10:51.356Z,38.90
2023-06-07T21:13:18.344Z,39.00
2023-06-07T21:15:46.391Z,39.00
2023-06-07T21:18:13.724Z,39.10
2023-06-07T21:20:41.549Z,39.20
2023-06-07T21:23:10.148Z,39.30
2023-06-07T21:25:40.431Z,39.40
2023-06-07T21:28:08.139Z,39.50
2023-06-07T21:30:35.516Z,39.40
2023-06-07T21:33:04.906Z,39.50
2023-06-07T21:35:32.411Z,39.60
2023-06-07T21:37:59.564Z,39.70
2023-06-07T21:40:28.193Z,39.70
2023-06-07T21:42:56.689Z,39.80
2023-06-07T21:45:27.087Z,40.00
2023-06-07T21:47:54.251Z,40.00
2023-06-07T21:50:21.482Z,40.10
2023-06-07T21:52:48.637Z,40.10
2023-06-07T21:55:16.061Z,40.20
2023-06-07T21:57:43.205Z,40.30
2023-06-07T22:00:14.980Z,40.30
2023-06-07T22:02:42.378Z,40.40
2023-06-07T22:05:10.451Z,40.50
2023-06-07T22:07:37.570Z,40.60
2023-06-07T22:10:05.943Z,40.60
2023-06-07T22:12:33.618Z,40.70
2023-06-07T22:15:03.415Z,40.80
2023-06-07T22:17:31.952Z,40.90
2023-06-07T22:20:07.199Z,40.90
2023-06-07T22:22:35.526Z,40.80
2023-06-07T22:25:04.023Z,41.00
2023-06-07T22:27:31.486Z,41.10
2023-06-07T22:29:59.609Z,41.00
2023-06-07T22:32:30.206Z,41.20
2023-06-07T22:35:05.200Z,41.10
2023-06-07T22:37:33.911Z,41.20
2023-06-07T22:40:01.642Z,41.50
2023-06-07T22:42:28.665Z,41.50
2023-06-07T22:44:56.281Z,41.50
2023-06-07T22:47:25.066Z,41.60
2023-06-07T22:49:57.819Z,41.60
2023-06-07T22:52:29.481Z,41.70
2023-06-07T22:54:56.753Z,41.80
2023-06-07T22:57:23.926Z,41.70
2023-06-07T22:59:51.582Z,41.90
2023-06-07T23:02:19.025Z,42.10
2023-06-07T23:04:46.186Z,42.10
2023-06-07T23:07:14.657Z,42.10
2023-06-07T23:09:45.874Z,42.10
2023-06-07T23:12:13.875Z,42.30
2023-06-07T23:14:46.081Z,42.30
2023-06-07T23:17:13.184Z,42.40
2023-06-07T23:19:40.185Z,42.60
2023-06-07T23:22:11.441Z,42.60
2023-06-07T23:24:38.566Z,42.70
2023-06-07T23:27:09.810Z,42.80
2023-06-07T23:29:37.285Z,43.10
2023-06-07T23:32:05.572Z,43.10
2023-06-07T23:34:34.157Z,43.20
2023-06-07T23:37:01.195Z,43.20
2023-06-07T23:39:28.246Z,43.20
2023-06-07T23:41:55.823Z,43.40
2023-06-07T23:44:25.621Z,43.60
2023-06-07T23:46:55.224Z,43.60
2023-06-07T23:49:28.089Z,43.50
2023-06-07T23:51:55.208Z,43.90
2023-06-07T23:54:22.428Z,43.70
2023-06-07T23:56:51.040Z,43.90
2023-06-07T23:59:18.345Z,44.10
